createdAt,value
2023-03-11T00:00:52.717Z,9.00
2023-03-11T00:03:25.109Z,8.80
2023-03-11T00:05:54.368Z,9.20
2023-03-11T00:08:25.282Z,8.70
2023-03-11T00:10:57.065Z,8.80
2023-03-11T00:13:25.044Z,8.80
2023-03-11T00:15:59.821Z,8.90
2023-03-11T00:18:31.705Z,8.90
2023-03-11T00:21:01.337Z,9.20
2023-03-11T00:23:29.412Z,8.90
2023-03-11T00:25:57.375Z,8.90
2023-03-11T00:28:26.978Z,9.00
2023-03-11T00:30:55.488Z,8.80
2023-03-11T00:33:23.654Z,8.80
2023-03-11T00:35:51.631Z,8.60
2023-03-11T00:38:20.096Z,8.80
2023-03-11T00:41:05.410Z,8.80
2023-03-11T00:43:33.032Z,8.60
2023-03-11T00:46:39.713Z,8.20
2023-03-11T00:49:07.444Z,8.60
2023-03-11T00:51:35.375Z,8.20
2023-03-11T00:54:02.735Z,8.10
2023-03-11T00:56:31.197Z,8.00
2023-03-11T00:58:58.850Z,7.60
2023-03-11T01:01:26.807Z,7.80
2023-03-11T01:03:54.397Z,7.70
2023-03-11T01:06:23.377Z,7.80
2023-03-11T01:08:51.109Z,7.80
2023-03-11T01:11:18.706Z,7.50
2023-03-11T01:13:46.537Z,7.40
2023-03-11T01:16:14.301Z,7.50
2023-03-11T01:18:41.965Z,7.70
2023-03-11T01:21:09.592Z,7.70
2023-03-11T01:23:37.058Z,7.70
2023-03-11T01:26:04.657Z,7.80
2023-03-11T01:28:32.122Z,7.80
2023-03-11T01:31:00.335Z,7.80
2023-03-11T01:33:29.674Z,7.80
2023-03-11T01:35:57.348Z,7.70
2023-03-11T01:38:25.012Z,7.70
2023-03-11T01:40:53.066Z,7.60
2023-03-11T01:43:51.562Z,7.50
2023-03-11T01:46:31.952Z,7.70
2023-03-11T01:49:06.376Z,7.50
2023-03-11T01:51:39.494Z,7.60
2023-03-11T01:54:14.875Z,7.50
2023-03-11T01:56:43.400Z,7.70
2023-03-11T01:59:16.299Z,7.50
2023-03-11T02:02:27.518Z,7.70
2023-03-11T02:04:57.246Z,7.40
2023-03-11T02:07:24.921Z,7.30
2023-03-11T02:09:52.415Z,7.50
2023-03-11T02:12:21.079Z,7.60
2023-03-11T02:14:54.745Z,7.70
2023-03-11T02:17:22.681Z,7.70
2023-03-11T02:20:20.298Z,7.80
2023-03-11T02:22:48.692Z,7.80
2023-03-11T02:25:44.350Z,7.70
2023-03-11T02:28:15.309Z,7.70
2023-03-11T02:30:44.700Z,7.70
2023-03-11T02:33:15.638Z,7.70
2023-03-11T02:35:43.232Z,7.70
2023-03-11T02:38:11.183Z,7.60
2023-03-11T02:40:56.399Z,7.60
2023-03-11T02:43:41.075Z,7.50
2023-03-11T02:46:11.972Z,7.50
2023-03-11T02:48:39.994Z,7.60
2023-03-11T02:51:07.825Z,7.20
2023-03-11T02:53:51.806Z,7.40
2023-03-11T02:56:19.240Z,7.70
2023-03-11T02:58:46.782Z,7.70
2023-03-11T03:01:14.825Z,7.70
2023-03-11T03:03:42.559Z,7.40
2023-03-11T03:06:10.016Z,7.60
2023-03-11T03:08:37.482Z,7.40
2023-03-11T03:11:05.578Z,7.60
2023-03-11T03:13:33.329Z,7.60
2023-03-11T03:16:01.005Z,7.40
2023-03-11T03:18:29.234Z,7.30
2023-03-11T03:20:56.865Z,7.60
2023-03-11T03:23:24.506Z,7.80
2023-03-11T03:25:52.102Z,7.60
2023-03-11T03:28:19.862Z,7.50
2023-03-11T03:30:47.560Z,7.70
2023-03-11T03:33:15.045Z,7.40
2023-03-11T03:35:45.559Z,7.40
2023-03-11T03:38:13.467Z,7.20
2023-03-11T03:40:47.855Z,7.10
2023-03-11T03:43:15.666Z,7.10
2023-03-11T03:45:43.249Z,6.60
2023-03-11T03:48:10.782Z,6.60
2023-03-11T03:50:41.787Z,6.20
2023-03-11T03:53:09.262Z,6.10
2023-03-11T03:55:36.941Z,5.60
2023-03-11T03:58:04.454Z,5.50
2023-03-11T04:00:32.176Z,5.50
2023-03-11T04:02:59.942Z,5.60
2023-03-11T04:05:28.056Z,5.50
2023-03-11T04:07:55.724Z,5.60
2023-03-11T04:10:23.180Z,5.90
2023-03-11T04:12:50.944Z,5.40
2023-03-11T04:15:18.787Z,5.60
2023-03-11T04:17:46.239Z,5.70
2023-03-11T04:20:13.705Z,5.40
2023-03-11T04:22:41.627Z,5.40
2023-03-11T04:25:09.448Z,5.20
2023-03-11T04:27:38.679Z,5.30
2023-03-11T04:30:07.140Z,5.00
2023-03-11T04:32:34.861Z,4.90
2023-03-11T04:35:02.295Z,5.10
2023-03-11T04:37:30.940Z,5.00
2023-03-11T04:39:58.781Z,5.30
2023-03-11T04:42:27.877Z,5.00
2023-03-11T04:44:55.393Z,5.00
2023-03-11T04:47:23.202Z,5.00
2023-03-11T04:49:51.306Z,4.90
2023-03-11T04:52:19.616Z,4.90
2023-03-11T04:54:47.629Z,5.00
2023-03-11T04:57:15.756Z,4.80
2023-03-11T04:59:43.272Z,4.60
2023-03-11T05:02:12.850Z,5.00
2023-03-11T05:04:40.902Z,4.80
2023-03-11T05:07:08.663Z,4.60
2023-03-11T05:09:36.401Z,4.70
2023-03-11T05:12:04.648Z,4.70
2023-03-11T05:14:32.346Z,4.70
2023-03-11T05:16:59.895Z,4.50
2023-03-11T05:19:31.251Z,4.60
2023-03-11T05:21:59.347Z,4.70
2023-03-11T05:24:26.986Z,4.50
2023-03-11T05:26:55.068Z,4.70
2023-03-11T05:29:23.632Z,4.70
2023-03-11T05:31:51.495Z,4.70
2023-03-11T05:34:19.372Z,4.20
2023-03-11T05:36:46.990Z,4.30
2023-03-11T05:39:14.686Z,4.20
2023-03-11T05:41:42.593Z,4.00
2023-03-11T05:44:10.335Z,4.10
2023-03-11T05:46:38.066Z,3.80
2023-03-11T05:49:06.000Z,4.20
2023-03-11T05:51:33.419Z,4.20
2023-03-11T05:54:03.553Z,4.20
2023-03-11T05:56:31.096Z,4.20
2023-03-11T05:59:16.504Z,4.00
2023-03-11T06:01:45.063Z,4.00
2023-03-11T06:04:13.481Z,3.90
2023-03-11T06:06:41.771Z,3.70
2023-03-11T06:09:14.773Z,3.80
2023-03-11T06:11:42.901Z,3.70
2023-03-11T06:14:15.390Z,3.50
2023-03-11T06:16:42.921Z,3.50
2023-03-11T06:19:10.763Z,3.50
2023-03-11T06:21:46.455Z,3.40
2023-03-11T06:24:14.389Z,3.40
2023-03-11T06:27:04.991Z,3.50
2023-03-11T06:29:32.637Z,3.20
2023-03-11T06:32:00.433Z,3.20
2023-03-11T06:34:28.591Z,3.40
2023-03-11T06:36:56.306Z,3.40
2023-03-11T06:39:26.486Z,3.10
2023-03-11T06:41:56.240Z,3.30
2023-03-11T06:44:30.292Z,3.30
2023-03-11T06:47:00.187Z,3.30
2023-03-11T06:49:27.690Z,3.40
2023-03-11T06:52:00.378Z,3.50
2023-03-11T06:54:30.280Z,3.30
2023-03-11T06:56:57.865Z,3.20
2023-03-11T06:59:25.337Z,3.40
2023-03-11T07:01:53.196Z,3.30
2023-03-11T07:04:21.582Z,3.10
2023-03-11T07:06:51.673Z,3.20
2023-03-11T07:09:19.467Z,3.60
2023-03-11T07:11:57.530Z,3.40
2023-03-11T07:14:44.156Z,3.20
2023-03-11T07:17:29.484Z,3.40
2023-03-11T07:21:08.981Z,3.40
2023-03-11T07:24:43.295Z,3.50
2023-03-11T07:27:17.519Z,3.40
2023-03-11T07:29:47.193Z,3.40
2023-03-11T07:32:17.835Z,3.30
2023-03-11T07:34:45.242Z,3.60
2023-03-11T07:37:16.443Z,3.80
2023-03-11T07:39:44.017Z,3.80
2023-03-11T07:42:11.652Z,3.50
2023-03-11T07:44:41.883Z,3.60
2023-03-11T07:47:09.997Z,3.70
2023-03-11T07:49:37.484Z,3.70
2023-03-11T07:52:05.338Z,3.60
2023-03-11T07:54:35.066Z,3.50
2023-03-11T07:57:03.857Z,3.50
2023-03-11T07:59:31.315Z,3.80
2023-03-11T08:01:58.849Z,3.60
2023-03-11T08:04:26.147Z,3.90
2023-03-11T08:06:53.688Z,4.00
2023-03-11T08:09:22.094Z,4.00
2023-03-11T08:11:49.877Z,3.50
2023-03-11T08:14:17.454Z,3.40
2023-03-11T08:16:45.773Z,3.60
2023-03-11T08:19:14.816Z,3.50
2023-03-11T08:21:42.216Z,3.60
2023-03-11T08:24:13.681Z,3.70
2023-03-11T08:26:41.421Z,3.40
2023-03-11T08:29:09.378Z,3.50
2023-03-11T08:31:36.886Z,3.60
2023-03-11T08:34:10.696Z,3.50
2023-03-11T08:36:38.036Z,3.80
2023-03-11T08:39:05.670Z,3.60
2023-03-11T08:41:33.573Z,3.60
2023-03-11T08:44:01.332Z,3.60
2023-03-11T08:46:39.341Z,3.30
2023-03-11T08:49:07.508Z,3.50
2023-03-11T08:51:36.219Z,3.70
2023-03-11T08:54:04.765Z,3.60
2023-03-11T08:56:32.374Z,3.40
2023-03-11T08:58:59.845Z,3.80
2023-03-11T09:01:27.517Z,3.60
2023-03-11T09:03:55.442Z,3.60
2023-03-11T09:06:22.938Z,3.60
2023-03-11T09:08:50.494Z,3.30
2023-03-11T09:11:19.265Z,3.40
2023-03-11T09:13:47.155Z,3.20
2023-03-11T09:16:23.490Z,3.50
2023-03-11T09:18:51.169Z,3.20
2023-03-11T09:21:18.639Z,3.30
2023-03-11T09:23:49.290Z,3.40
2023-03-11T09:26:17.138Z,3.10
2023-03-11T09:28:49.208Z,3.50
2023-03-11T09:31:25.662Z,3.50
2023-03-11T09:33:56.785Z,3.60
2023-03-11T09:36:24.459Z,3.70
2023-03-11T09:38:55.735Z,3.70
2023-03-11T09:41:57.916Z,3.60
2023-03-11T09:44:40.227Z,3.70
2023-03-11T09:47:36.351Z,3.60
2023-03-11T09:50:32.102Z,3.60
2023-03-11T09:53:46.448Z,3.70
2023-03-11T09:56:24.579Z,3.80
2023-03-11T09:59:01.461Z,3.60
2023-03-11T10:01:39.330Z,3.40
2023-03-11T10:04:30.469Z,3.20
2023-03-11T10:07:05.563Z,3.40
2023-03-11T10:09:58.917Z,2.40
2023-03-11T10:12:57.763Z,3.30
2023-03-11T10:15:28.309Z,3.50
2023-03-11T10:18:26.550Z,3.40
2023-03-11T10:21:29.596Z,3.30
2023-03-11T10:24:21.505Z,3.40
2023-03-11T10:27:00.267Z,3.80
2023-03-11T10:29:54.061Z,3.60
2023-03-11T10:32:49.987Z,3.30
2023-03-11T10:35:29.660Z,3.90
2023-03-11T10:38:23.092Z,3.80
2023-03-11T10:40:56.516Z,3.80
2023-03-11T10:43:46.650Z,3.80
2023-03-11T10:46:25.866Z,3.80
2023-03-11T10:48:55.964Z,4.00
2023-03-11T10:51:28.144Z,3.60
2023-03-11T10:53:58.580Z,3.80
2023-03-11T10:56:41.444Z,3.90
2023-03-11T10:59:48.601Z,3.90
2023-03-11T11:02:28.032Z,3.90
2023-03-11T11:05:23.225Z,3.40
2023-03-11T11:08:02.792Z,3.60
2023-03-11T11:10:32.752Z,3.90
2023-03-11T11:13:09.162Z,3.70
2023-03-11T11:15:41.411Z,3.70
2023-03-11T11:18:25.607Z,3.70
2023-03-11T11:21:03.809Z,3.70
2023-03-11T11:24:02.024Z,3.70
2023-03-11T11:26:29.711Z,3.70
2023-03-11T11:29:10.390Z,4.00
2023-03-11T11:31:40.704Z,3.80
2023-03-11T11:34:35.367Z,3.80
2023-03-11T11:37:11.371Z,4.00
2023-03-11T11:40:11.666Z,4.00
2023-03-11T11:42:46.032Z,4.00
2023-03-11T11:45:28.704Z,4.30
2023-03-11T11:48:01.378Z,4.20
2023-03-11T11:50:42.145Z,4.60
2023-03-11T11:53:25.608Z,4.50
2023-03-11T11:55:55.541Z,4.50
2023-03-11T11:58:23.148Z,4.40
2023-03-11T12:01:15.134Z,4.60
2023-03-11T12:04:22.163Z,4.40
2023-03-11T12:07:13.396Z,4.40
2023-03-11T12:09:59.863Z,4.60
2023-03-11T12:12:59.564Z,4.60
2023-03-11T12:15:40.279Z,4.20
2023-03-11T12:18:24.090Z,4.20
2023-03-11T12:21:00.469Z,4.40
2023-03-11T12:24:01.907Z,4.10
2023-03-11T12:26:38.267Z,4.40
2023-03-11T12:29:18.319Z,4.10
2023-03-11T12:31:47.045Z,4.30
2023-03-11T12:34:19.750Z,4.10
2023-03-11T12:36:49.831Z,4.20
2023-03-11T12:39:34.790Z,4.20
2023-03-11T12:42:11.271Z,4.10
2023-03-11T12:44:40.518Z,4.10
2023-03-11T12:47:14.030Z,4.00
2023-03-11T12:49:45.266Z,4.10
2023-03-11T12:52:12.586Z,4.00
2023-03-11T12:54:56.860Z,4.10
2023-03-11T12:57:32.799Z,4.20
2023-03-11T13:00:23.311Z,4.20
2023-03-11T13:03:13.415Z,4.10
2023-03-11T13:06:20.349Z,3.90
2023-03-11T13:08:54.998Z,4.30
2023-03-11T13:11:42.331Z,4.40
2023-03-11T13:14:18.742Z,3.80
2023-03-11T13:16:50.302Z,4.00
2023-03-11T13:19:27.169Z,4.00
2023-03-11T13:22:05.248Z,4.10
2023-03-11T13:24:32.504Z,4.20
2023-03-11T13:27:00.853Z,4.00
2023-03-11T13:29:47.788Z,3.80
2023-03-11T13:33:10.112Z,4.10
2023-03-11T13:35:57.129Z,4.00
2023-03-11T13:38:34.196Z,4.00
2023-03-11T13:41:03.479Z,4.00
2023-03-11T13:43:31.081Z,3.90
2023-03-11T13:46:40.468Z,4.10
2023-03-11T13:49:33.345Z,3.90
2023-03-11T13:52:06.102Z,3.80
2023-03-11T13:54:59.805Z,3.80
2023-03-11T13:57:37.284Z,3.70
2023-03-11T14:00:28.643Z,3.70
2023-03-11T14:03:03.798Z,4.00
2023-03-11T14:05:37.528Z,3.60
2023-03-11T14:08:22.404Z,3.70
2023-03-11T14:11:17.862Z,4.00
2023-03-11T14:13:50.620Z,3.80
2023-03-11T14:16:36.147Z,3.60
2023-03-11T14:19:12.375Z,3.80
2023-03-11T14:21:50.767Z,3.90
2023-03-11T14:24:27.038Z,3.70
2023-03-11T14:26:58.268Z,3.60
2023-03-11T14:29:47.962Z,3.60
2023-03-11T14:32:31.254Z,3.60
2023-03-11T14:34:59.569Z,3.30
2023-03-11T14:37:35.261Z,3.20
2023-03-11T14:40:04.384Z,2.90
2023-03-11T14:42:48.878Z,3.30
2023-03-11T14:45:19.578Z,3.00
2023-03-11T14:48:00.814Z,2.90
2023-03-11T14:50:33.833Z,2.90
2023-03-11T14:53:26.903Z,2.90
2023-03-11T14:56:03.066Z,2.70
2023-03-11T14:58:40.252Z,3.00
2023-03-11T15:01:30.223Z,3.20
2023-03-11T15:04:04.122Z,2.90
2023-03-11T15:06:35.131Z,2.80
2023-03-11T15:09:10.285Z,2.90
2023-03-11T15:11:53.127Z,2.70
2023-03-11T15:14:36.252Z,2.70
2023-03-11T15:17:38.531Z,2.30
2023-03-11T15:20:44.040Z,2.60
2023-03-11T15:23:22.948Z,2.50
2023-03-11T15:25:54.884Z,2.50
2023-03-11T15:28:31.198Z,2.70
2023-03-11T15:31:20.577Z,2.70
2023-03-11T15:33:53.419Z,2.70
2023-03-11T15:36:40.369Z,2.70
2023-03-11T15:39:19.207Z,2.40
2023-03-11T15:42:05.790Z,2.60
2023-03-11T15:44:37.648Z,2.40
2023-03-11T15:47:05.511Z,2.50
2023-03-11T15:49:33.906Z,2.70
2023-03-11T15:52:02.639Z,2.40
2023-03-11T15:54:34.782Z,2.50
2023-03-11T15:57:06.143Z,2.00
2023-03-11T15:59:35.917Z,2.00
2023-03-11T16:02:04.061Z,2.30
2023-03-11T16:04:31.496Z,3.20
2023-03-11T16:07:07.759Z,2.30
2023-03-11T16:09:35.903Z,2.70
2023-03-11T16:12:13.755Z,2.60
2023-03-11T16:14:41.217Z,2.30
2023-03-11T16:17:08.447Z,2.70
2023-03-11T16:19:35.682Z,2.50
2023-03-11T16:22:04.634Z,2.60
2023-03-11T16:24:31.999Z,2.50
2023-03-11T16:27:00.101Z,2.40
2023-03-11T16:29:33.553Z,2.50
2023-03-11T16:32:00.834Z,2.90
2023-03-11T16:34:28.263Z,2.60
2023-03-11T16:36:58.686Z,2.50
2023-03-11T16:39:26.249Z,2.60
2023-03-11T16:41:53.474Z,2.70
2023-03-11T16:44:20.625Z,2.50
2023-03-11T16:46:47.958Z,2.60
2023-03-11T16:49:15.186Z,2.40
2023-03-11T16:51:42.410Z,2.50
2023-03-11T16:54:12.139Z,2.50
2023-03-11T16:56:41.670Z,2.50
2023-03-11T16:59:11.111Z,2.30
2023-03-11T17:01:38.712Z,2.40
2023-03-11T17:04:13.290Z,2.10
2023-03-11T17:06:43.253Z,2.40
2023-03-11T17:09:15.231Z,2.50
2023-03-11T17:11:44.914Z,2.50
2023-03-11T17:14:16.550Z,2.50
2023-03-11T17:16:45.335Z,2.70
2023-03-11T17:19:13.572Z,2.80
2023-03-11T17:21:40.944Z,2.70
2023-03-11T17:24:10.727Z,2.60
2023-03-11T17:26:38.565Z,2.60
2023-03-11T17:29:13.770Z,2.70
2023-03-11T17:31:41.071Z,2.70
2023-03-11T17:34:08.494Z,3.00
2023-03-11T17:36:39.320Z,2.70
2023-03-11T17:39:07.223Z,2.70
2023-03-11T17:41:34.524Z,2.70
2023-03-11T17:44:01.670Z,2.70
2023-03-11T17:46:30.275Z,2.80
2023-03-11T17:49:07.753Z,2.60
2023-03-11T17:51:35.175Z,2.70
2023-03-11T17:54:02.469Z,2.70
2023-03-11T17:56:32.174Z,2.60
2023-03-11T17:58:59.975Z,2.70
2023-03-11T18:01:28.525Z,2.40
2023-03-11T18:03:56.529Z,2.70
2023-03-11T18:06:25.347Z,2.30
2023-03-11T18:08:53.384Z,2.60
2023-03-11T18:11:28.682Z,2.30
2023-03-11T18:13:59.011Z,2.40
2023-03-11T18:16:29.866Z,2.50
2023-03-11T18:18:57.914Z,2.30
2023-03-11T18:21:29.480Z,2.20
2023-03-11T18:24:03.580Z,2.30
2023-03-11T18:26:31.484Z,2.20
2023-03-11T18:29:00.316Z,2.30
2023-03-11T18:31:30.030Z,2.30
2023-03-11T18:34:01.860Z,2.30
2023-03-11T18:36:36.652Z,2.20
2023-03-11T18:39:05.097Z,2.30
2023-03-11T18:41:36.992Z,2.70
2023-03-11T18:44:05.063Z,3.30
2023-03-11T18:46:33.310Z,2.60
2023-03-11T18:49:03.984Z,2.40
2023-03-11T18:51:33.935Z,2.20
2023-03-11T18:54:06.296Z,2.30
2023-03-11T18:56:34.017Z,2.20
2023-03-11T18:59:03.919Z,2.20
2023-03-11T19:01:32.028Z,2.20
2023-03-11T19:04:00.634Z,1.90
2023-03-11T19:06:29.528Z,2.00
2023-03-11T19:08:58.878Z,2.30
2023-03-11T19:11:29.212Z,2.90
2023-03-11T19:13:57.522Z,1.90
2023-03-11T19:16:27.269Z,2.90
2023-03-11T19:18:55.493Z,2.50
2023-03-11T19:21:24.280Z,2.00
2023-03-11T19:23:57.273Z,2.00
2023-03-11T19:26:41.468Z,1.90
2023-03-11T19:29:11.857Z,2.30
2023-03-11T19:31:42.340Z,1.80
2023-03-11T19:34:09.915Z,2.40
2023-03-11T19:36:37.260Z,1.90
2023-03-11T19:39:04.840Z,2.20
2023-03-11T19:41:32.130Z,2.20
2023-03-11T19:44:00.983Z,2.20
2023-03-11T19:46:29.487Z,1.90
2023-03-11T19:48:56.966Z,1.80
2023-03-11T19:51:28.463Z,2.10
2023-03-11T19:54:13.777Z,2.10
2023-03-11T19:56:41.671Z,1.70
2023-03-11T19:59:09.337Z,1.80
2023-03-11T20:01:36.908Z,1.80
2023-03-11T20:04:05.166Z,1.90
2023-03-11T20:06:32.643Z,1.80
2023-03-11T20:09:00.417Z,2.10
2023-03-11T20:11:27.775Z,1.70
2023-03-11T20:13:55.231Z,2.10
2023-03-11T20:16:22.739Z,1.60
2023-03-11T20:18:50.975Z,1.90
2023-03-11T20:21:27.389Z,1.80
2023-03-11T20:23:56.872Z,1.40
2023-03-11T20:26:25.226Z,1.60
2023-03-11T20:28:56.647Z,1.80
2023-03-11T20:31:31.663Z,1.60
2023-03-11T20:34:07.328Z,1.60
2023-03-11T20:37:13.183Z,1.40
2023-03-11T20:39:43.841Z,1.70
2023-03-11T20:42:19.589Z,1.70
2023-03-11T20:45:03.470Z,1.50
2023-03-11T20:47:30.900Z,1.70
2023-03-11T20:49:58.735Z,1.70
2023-03-11T20:52:27.518Z,1.40
2023-03-11T20:55:03.331Z,1.30
2023-03-11T20:57:35.800Z,1.30
2023-03-11T21:00:12.701Z,1.50
2023-03-11T21:02:45.094Z,1.40
2023-03-11T21:05:15.772Z,1.40
2023-03-11T21:07:43.408Z,1.30
2023-03-11T21:10:12.975Z,1.00
2023-03-11T21:12:40.775Z,0.80
2023-03-11T21:15:15.935Z,1.00
2023-03-11T21:17:53.494Z,1.00
2023-03-11T21:20:21.558Z,1.00
2023-03-11T21:22:49.175Z,1.20
2023-03-11T21:25:16.940Z,1.00
2023-03-11T21:27:44.445Z,0.90
2023-03-11T21:30:13.280Z,1.10
2023-03-11T21:32:40.831Z,0.90
2023-03-11T21:35:08.828Z,0.90
2023-03-11T21:37:36.252Z,0.90
2023-03-11T21:40:04.322Z,0.90
2023-03-11T21:42:31.786Z,0.80
2023-03-11T21:44:59.340Z,0.70
2023-03-11T21:47:26.909Z,1.00
2023-03-11T21:49:54.431Z,0.80
2023-03-11T21:52:21.999Z,0.90
2023-03-11T21:54:49.620Z,0.80
2023-03-11T21:57:17.238Z,0.50
2023-03-11T21:59:44.857Z,0.80
2023-03-11T22:02:17.361Z,0.70
2023-03-11T22:04:45.359Z,0.70
2023-03-11T22:07:12.958Z,0.40
2023-03-11T22:09:40.462Z,0.30
2023-03-11T22:12:08.059Z,0.30
2023-03-11T22:15:06.173Z,0.50
2023-03-11T22:17:29.090Z,0.30
2023-03-11T22:19:57.052Z,0.50
2023-03-11T22:22:24.611Z,0.70
2023-03-11T22:24:51.970Z,0.60
2023-03-11T22:27:19.549Z,0.60
2023-03-11T22:29:47.096Z,0.50
2023-03-11T22:32:15.315Z,0.60
2023-03-11T22:34:42.933Z,1.00
2023-03-11T22:37:10.449Z,0.20
2023-03-11T22:39:38.057Z,0.60
2023-03-11T22:42:05.704Z,0.60
2023-03-11T22:44:33.586Z,0.50
2023-03-11T22:47:01.258Z,0.40
2023-03-11T22:49:28.829Z,0.50
2023-03-11T22:51:56.598Z,0.50
2023-03-11T22:54:24.579Z,0.60
2023-03-11T22:56:52.135Z,0.60
2023-03-11T22:59:19.923Z,0.20
2023-03-11T23:01:47.768Z,0.60
2023-03-11T23:04:15.243Z,0.70
2023-03-11T23:06:43.249Z,0.70
2023-03-11T23:09:11.716Z,0.70
2023-03-11T23:11:39.192Z,0.60
2023-03-11T23:14:07.335Z,0.60
2023-03-11T23:16:34.767Z,0.70
2023-03-11T23:19:02.460Z,1.20
2023-03-11T23:21:32.840Z,0.60
2023-03-11T23:24:02.662Z,0.60
2023-03-11T23:26:31.175Z,0.60
2023-03-11T23:28:58.868Z,0.40
2023-03-11T23:31:34.230Z,0.60
2023-03-11T23:34:04.674Z,0.30
2023-03-11T23:36:37.969Z,0.40
2023-03-11T23:39:05.732Z,0.50
2023-03-11T23:41:33.077Z,0.40
2023-03-11T23:44:00.569Z,0.50
2023-03-11T23:46:28.100Z,0.60
2023-03-11T23:48:55.686Z,0.50
2023-03-11T23:51:23.261Z,0.20
2023-03-11T23:53:50.818Z,0.60
2023-03-11T23:56:19.386Z,0.20
2023-03-11T23:58:48.124Z,0.30
